Time;durP1;ratioP1;P1;durP2;ratioP2;P2;SDS_P1;SDS_P2;PMS_P1;PMS_P2;Temp;Humidity;BMP_temperature;BMP_pressure;BME280_temperature;BME280_humidity;BME280_pressure;Samples;Min_cycle;Max_cycle;Signal;HPM_P1;HPM_P2
2023/07/10 06:01:44;;;;;;;24.17;5.43;;;;;;;;;;5361517;23;20043;-80
2023/07/10 06:04:09;;;;;;;26.35;4.57;;;;;;;;;;4955348;28;20039;-81
2023/07/10 06:06:35;;;;;;;27.15;4.97;;;;;;;;;;4973465;28;20066;-82
2023/07/10 06:09:00;;;;;;;24.75;4.65;;;;;;;;;;4972916;28;20094;-81
2023/07/10 06:11:26;;;;;;;27.90;4.88;;;;;;;;;;4972789;28;20539;-81
2023/07/10 06:13:51;;;;;;;20.17;4.72;;;;;;;;;;4973391;28;20061;-84
2023/07/10 06:16:17;;;;;;;26.00;5.32;;;;;;;;;;4973127;28;20043;-81
2023/07/10 06:18:42;;;;;;;22.30;4.50;;;;;;;;;;4972929;28;20050;-81
2023/07/10 06:21:09;;;;;;;23.30;4.75;;;;;;;;;;4972357;28;20475;-80
2023/07/10 06:23:35;;;;;;;23.85;4.28;;;;;;;;;;4972627;28;20051;-81
2023/07/10 06:26:01;;;;;;;18.30;4.45;;;;;;;;;;4972257;28;20042;-81
2023/07/10 06:28:29;;;;;;;23.33;4.43;;;;;;;;;;4971875;28;20054;-81
2023/07/10 06:30:56;;;;;;;24.15;4.95;;;;;;;;;;4970250;28;20503;-80
2023/07/10 06:33:21;;;;;;;21.25;4.38;;;;;;;;;;4952373;28;20181;-81
2023/07/10 06:35:46;;;;;;;21.95;4.25;;;;;;;;;;4953076;28;20541;-81
2023/07/10 06:38:12;;;;;;;35.25;4.65;;;;;;;;;;4967208;28;20051;-81
2023/07/10 06:40:37;;;;;;;22.17;4.63;;;;;;;;;;4953200;28;20093;-80
2023/07/10 06:43:02;;;;;;;22.70;4.63;;;;;;;;;;4952964;28;20069;-80
2023/07/10 06:45:28;;;;;;;20.75;4.03;;;;;;;;;;4952377;28;20054;-80
2023/07/10 06:47:53;;;;;;;20.73;3.88;;;;;;;;;;4951569;29;20098;-79
2023/07/10 06:50:19;;;;;;;18.70;3.63;;;;;;;;;;4952209;28;20039;-79
2023/07/10 06:52:45;;;;;;;17.05;3.70;;;;;;;;;;4952752;28;20055;-79
2023/07/10 06:55:16;;;;;;;23.10;4.10;;;;;;;;;;4951560;28;20043;-80
2023/07/10 06:57:41;;;;;;;21.48;4.47;;;;;;;;;;4953058;28;20527;-79
2023/07/10 07:00:10;;;;;;;22.85;4.07;;;;;;;;;;4952350;28;20047;-79
2023/07/10 07:02:37;;;;;;;18.17;4.05;;;;;;;;;;4952372;28;20062;-79
2023/07/10 07:05:05;;;;;;;21.45;3.75;;;;;;;;;;4953929;28;20047;-80
2023/07/10 07:07:31;;;;;;;20.50;3.17;;;;;;;;;;4954419;28;20109;-79
2023/07/10 07:09:56;;;;;;;20.70;3.45;;;;;;;;;;4971528;28;20416;-79
2023/07/10 07:12:21;;;;;;;22.15;3.30;;;;;;;;;;4970910;28;20581;-80
2023/07/10 07:14:47;;;;;;;20.98;3.70;;;;;;;;;;4972114;28;20042;-80
2023/07/10 07:17:14;;;;;;;19.75;3.83;;;;;;;;;;4970825;28;20070;-79
2023/07/10 07:19:41;;;;;;;18.52;3.55;;;;;;;;;;4971713;28;20039;-80
2023/07/10 07:22:06;;;;;;;18.75;4.10;;;;;;;;;;4971415;28;20050;-79
2023/07/10 07:24:32;;;;;;;22.90;3.70;;;;;;;;;;4966203;28;20047;-80
2023/07/10 07:26:57;;;;;;;24.85;3.65;;;;;;;;;;4952769;28;20423;-80
2023/07/10 07:29:23;;;;;;;18.70;3.50;;;;;;;;;;4951626;28;20117;-80
2023/07/10 07:31:48;;;;;;;18.15;3.20;;;;;;;;;;4960830;28;20062;-80
2023/07/10 07:34:14;;;;;;;14.82;3.15;;;;;;;;;;4971351;28;20464;-80
2023/07/10 07:36:40;;;;;;;20.77;3.50;;;;;;;;;;4971914;28;20042;-80
2023/07/10 07:39:05;;;;;;;22.45;3.90;;;;;;;;;;4971093;28;20042;-80
2023/07/10 07:41:32;;;;;;;24.48;3.70;;;;;;;;;;4971410;28;20054;-81
2023/07/10 07:43:58;;;;;;;23.95;3.45;;;;;;;;;;4971593;28;20154;-81
2023/07/10 07:46:23;;;;;;;20.40;3.70;;;;;;;;;;4971438;28;20205;-80
2023/07/10 07:48:49;;;;;;;18.60;3.72;;;;;;;;;;4971655;28;20197;-80
2023/07/10 07:51:16;;;;;;;22.92;4.30;;;;;;;;;;4970499;28;20047;-80
2023/07/10 07:53:42;;;;;;;16.95;3.08;;;;;;;;;;4953941;28;20169;-80
2023/07/10 07:56:08;;;;;;;28.20;4.10;;;;;;;;;;4955185;28;20171;-79
2023/07/10 07:58:33;;;;;;;19.42;3.63;;;;;;;;;;4951109;28;20094;-80
2023/07/10 08:01:02;;;;;;;19.98;3.58;;;;;;;;;;4952102;28;20126;-78
2023/07/10 08:03:28;;;;;;;14.23;3.33;;;;;;;;;;4951771;28;20515;-79
2023/07/10 08:05:54;;;;;;;14.10;2.85;;;;;;;;;;4962347;28;20117;-78
2023/07/10 08:08:19;;;;;;;16.67;3.50;;;;;;;;;;4970154;28;20483;-78
2023/07/10 08:10:47;;;;;;;20.73;3.28;;;;;;;;;;4974337;28;20058;-78
2023/07/10 08:13:14;;;;;;;18.05;3.50;;;;;;;;;;4973719;28;20081;-77
2023/07/10 08:15:41;;;;;;;22.08;3.40;;;;;;;;;;4970688;28;20131;-78
2023/07/10 08:18:07;;;;;;;20.05;4.38;;;;;;;;;;4954987;29;20040;-76
2023/07/10 08:20:33;;;;;;;20.30;3.63;;;;;;;;;;4954896;29;20518;-78
2023/07/10 08:22:59;;;;;;;16.73;3.40;;;;;;;;;;4954771;29;20051;-78
2023/07/10 08:25:25;;;;;;;13.93;3.17;;;;;;;;;;4967799;28;20212;-78
2023/07/10 08:27:50;;;;;;;16.25;3.70;;;;;;;;;;4974185;28;20077;-81
2023/07/10 08:30:16;;;;;;;13.23;3.17;;;;;;;;;;4973845;28;20067;-79
2023/07/10 08:32:42;;;;;;;16.10;2.97;;;;;;;;;;4974398;28;20058;-80
2023/07/10 08:35:07;;;;;;;21.23;3.85;;;;;;;;;;4974011;28;20078;-78
2023/07/10 08:37:37;;;;;;;19.45;2.92;;;;;;;;;;4974193;28;20039;-79
2023/07/10 08:40:10;;;;;;;23.75;4.07;;;;;;;;;;4974371;28;20466;-82
2023/07/10 08:42:35;;;;;;;24.52;3.72;;;;;;;;;;4973237;28;20089;-77
2023/07/10 08:45:01;;;;;;;18.38;3.60;;;;;;;;;;4974043;28;20162;-78
2023/07/10 08:47:34;;;;;;;16.23;3.63;;;;;;;;;;4973496;28;20125;-80
2023/07/10 08:50:29;;;;;;;21.25;3.65;;;;;;;;;;4973757;28;20105;-80
2023/07/10 08:53:00;;;;;;;20.65;3.83;;;;;;;;;;4973582;28;20481;-77
2023/07/10 08:55:34;;;;;;;23.50;3.40;;;;;;;;;;4973167;28;20137;-81
2023/07/10 08:58:02;;;;;;;16.52;3.35;;;;;;;;;;4973392;28;20051;-81
2023/07/10 09:00:35;;;;;;;17.63;3.33;;;;;;;;;;4973207;28;20042;-79
2023/07/10 09:03:19;;;;;;;20.60;3.28;;;;;;;;;;4973849;28;20345;-78
2023/07/10 09:05:49;;;;;;;24.85;3.45;;;;;;;;;;4973449;28;20047;-79
2023/07/10 09:08:16;;;;;;;14.57;3.33;;;;;;;;;;4973473;28;20423;-81
2023/07/10 09:10:54;;;;;;;18.20;3.22;;;;;;;;;;4973472;28;20109;-81
2023/07/10 09:13:43;;;;;;;15.77;2.90;;;;;;;;;;4973297;28;20093;-80
2023/07/10 09:16:17;;;;;;;17.98;3.20;;;;;;;;;;4956083;28;20050;-80
2023/07/10 09:19:15;;;;;;;16.17;3.53;;;;;;;;;;4972802;28;20105;-81
2023/07/10 09:21:41;;;;;;;;;;;;;;;;;;4973399;28;20061;-81
2023/07/10 09:24:17;;;;;;;18.20;3.13;;;;;;;;;;4973129;28;19947;-81
2023/07/10 09:26:42;;;;;;;19.10;3.85;;;;;;;;;;4973165;28;20067;-81
2023/07/10 09:29:11;;;;;;;17.10;3.20;;;;;;;;;;4972540;28;20038;-81
2023/07/10 09:31:53;;;;;;;18.08;3.42;;;;;;;;;;4973105;28;20058;-80
2023/07/10 09:34:22;;;;;;;21.00;3.90;;;;;;;;;;4973278;28;20530;-81
2023/07/10 09:36:51;;;;;;;19.25;3.45;;;;;;;;;;4973289;28;20248;-81
2023/07/10 09:39:17;;;;;;;20.27;3.85;;;;;;;;;;4972354;28;20819;-81
2023/07/10 09:41:43;;;;;;;19.75;2.80;;;;;;;;;;4972808;28;20046;-81
2023/07/10 09:44:18;;;;;;;24.17;3.97;;;;;;;;;;4972653;28;20126;-80
2023/07/10 09:46:43;;;;;;;18.98;3.78;;;;;;;;;;4973040;28;20059;-81
2023/07/10 09:49:21;;;;;;;24.75;3.70;;;;;;;;;;4972933;28;20054;-81
2023/07/10 09:51:59;;;;;;;18.17;3.60;;;;;;;;;;4972740;28;20129;-81
2023/07/10 09:54:33;;;;;;;;;;;;;;;;;;4972586;28;20134;-80
2023/07/10 09:57:03;;;;;;;14.13;3.17;;;;;;;;;;4973137;28;19929;-80
2023/07/10 09:59:31;;;;;;;22.65;3.67;;;;;;;;;;4973577;28;20055;-80
2023/07/10 10:02:13;;;;;;;15.98;3.33;;;;;;;;;;4973936;28;20047;-80
2023/07/10 10:04:42;;;;;;;20.00;3.97;;;;;;;;;;4972878;28;20034;-80
2023/07/10 10:07:14;;;;;;;18.95;3.38;;;;;;;;;;4972116;28;20046;-80
2023/07/10 10:09:39;;;;;;;16.08;3.53;;;;;;;;;;4972805;28;20066;-80
2023/07/10 10:12:29;;;;;;;22.80;3.88;;;;;;;;;;4972139;28;20046;-79
2023/07/10 10:15:02;;;;;;;22.63;4.30;;;;;;;;;;4973055;28;20074;-80
2023/07/10 10:17:31;;;;;;;20.42;3.70;;;;;;;;;;4972290;28;20058;-80
2023/07/10 10:20:06;;;;;;;14.02;3.20;;;;;;;;;;4972359;28;20050;-80
2023/07/10 10:22:32;;;;;;;20.98;3.67;;;;;;;;;;4972221;28;20519;-82
2023/07/10 10:24:57;;;;;;;14.05;3.30;;;;;;;;;;4969716;28;20053;-81
2023/07/10 10:27:45;;;;;;;18.10;3.63;;;;;;;;;;4972208;28;20066;-80
2023/07/10 10:30:27;;;;;;;14.02;3.05;;;;;;;;;;4972290;28;20057;-80
2023/07/10 10:33:13;;;;;;;14.45;3.47;;;;;;;;;;4974728;28;20132;-81
2023/07/10 10:35:48;;;;;;;15.55;3.28;;;;;;;;;;4973352;28;20077;-82
2023/07/10 10:38:26;;;;;;;17.25;3.05;;;;;;;;;;4971930;28;20054;-81
2023/07/10 10:41:03;;;;;;;15.32;3.13;;;;;;;;;;4967176;28;20102;-80
2023/07/10 10:43:37;;;;;;;17.80;3.75;;;;;;;;;;4963389;28;20125;-80
2023/07/10 10:46:26;;;;;;;16.50;3.45;;;;;;;;;;4963381;28;20069;-78
2023/07/10 10:49:08;;;;;;;15.68;2.80;;;;;;;;;;4971070;28;20506;-79
2023/07/10 10:52:05;;;;;;;18.77;3.72;;;;;;;;;;4972522;28;20075;-80
2023/07/10 10:54:39;;;;;;;13.75;3.00;;;;;;;;;;4971628;28;20059;-79
2023/07/10 10:57:17;;;;;;;18.90;3.45;;;;;;;;;;4971254;28;20530;-79
2023/07/10 10:59:57;;;;;;;17.27;3.45;;;;;;;;;;4971889;28;20554;-79
2023/07/10 11:02:22;;;;;;;15.70;3.42;;;;;;;;;;4974056;28;20058;-79
2023/07/10 11:05:02;;;;;;;17.27;3.00;;;;;;;;;;4988223;28;20061;-79
2023/07/10 11:07:30;;;;;;;12.85;3.20;;;;;;;;;;4961082;29;20075;-79
2023/07/10 11:09:59;;;;;;;14.23;2.92;;;;;;;;;;4956062;29;20055;-79
2023/07/10 11:12:30;;;;;;;17.15;3.50;;;;;;;;;;4953642;29;20082;-79
2023/07/10 11:15:01;;;;;;;16.88;3.05;;;;;;;;;;4953167;28;20185;-77
2023/07/10 11:17:26;;;;;;;13.65;2.42;;;;;;;;;;4970768;28;20065;-78
2023/07/10 11:19:52;;;;;;;13.63;3.35;;;;;;;;;;4970356;28;20508;-79
2023/07/10 11:22:26;;;;;;;17.90;3.30;;;;;;;;;;4970430;28;20194;-77
2023/07/10 11:24:52;;;;;;;14.45;3.10;;;;;;;;;;4971320;28;20419;-78
2023/07/10 11:27:28;;;;;;;17.48;3.20;;;;;;;;;;4970441;28;20455;-80
2023/07/10 11:30:15;;;;;;;15.75;3.63;;;;;;;;;;4970639;28;20046;-80
2023/07/10 11:33:14;;;;;;;14.85;3.20;;;;;;;;;;4963521;28;20094;-78
2023/07/10 11:36:16;;;;;;;18.58;3.08;;;;;;;;;;4959193;28;20046;-77
2023/07/10 11:39:19;;;;;;;12.70;2.90;;;;;;;;;;4974675;28;20093;-79
2023/07/10 11:41:44;;;;;;;14.02;2.55;;;;;;;;;;4891634;29;20045;-79
2023/07/10 11:44:28;;;;;;;13.63;2.78;;;;;;;;;;4885147;29;20181;-79
2023/07/10 11:47:23;;;;;;;12.90;2.78;;;;;;;;;;4877663;29;20419;-78
2023/07/10 11:49:50;;;;;;;14.95;3.15;;;;;;;;;;4859806;29;21802;-78
2023/07/10 11:52:16;;;;;;;12.80;3.25;;;;;;;;;;4875020;29;20161;-82
2023/07/10 11:54:41;;;;;;;13.13;2.75;;;;;;;;;;4877165;29;20097;-79
2023/07/10 11:57:06;;;;;;;10.73;2.60;;;;;;;;;;4876774;29;20045;-81
2023/07/10 11:59:34;;;;;;;13.07;3.13;;;;;;;;;;4877909;29;20068;-78
2023/07/10 12:01:59;;;;;;;14.00;2.83;;;;;;;;;;4877646;29;20096;-79
2023/07/10 12:04:26;;;;;;;13.88;2.97;;;;;;;;;;4876869;29;20057;-78
2023/07/10 12:06:52;;;;;;;14.73;2.95;;;;;;;;;;4877480;29;20045;-80
2023/07/10 12:09:18;;;;;;;15.10;3.10;;;;;;;;;;4876593;29;20053;-79
2023/07/10 12:11:45;;;;;;;12.90;3.17;;;;;;;;;;4876540;29;20101;-80
2023/07/10 12:14:16;;;;;;;11.65;2.70;;;;;;;;;;4876399;29;20124;-80
2023/07/10 12:16:47;;;;;;;10.55;2.85;;;;;;;;;;4899135;28;20047;-79
2023/07/10 12:19:16;;;;;;;13.85;2.97;;;;;;;;;;4973358;28;20137;-79
2023/07/10 12:21:43;;;;;;;15.02;2.90;;;;;;;;;;4974863;28;20058;-80
2023/07/10 12:24:12;;;;;;;15.95;2.92;;;;;;;;;;4970241;28;20046;-80
2023/07/10 12:26:38;;;;;;;19.08;3.15;;;;;;;;;;4967947;28;20042;-79
2023/07/10 12:29:09;;;;;;;14.95;3.17;;;;;;;;;;4973394;28;20113;-79
2023/07/10 12:31:38;;;;;;;15.68;3.30;;;;;;;;;;4976852;28;20124;-81
2023/07/10 12:34:03;;;;;;;14.23;3.25;;;;;;;;;;4977007;28;20046;-79
2023/07/10 12:36:35;;;;;;;9.57;2.75;;;;;;;;;;4974722;28;20509;-80
2023/07/10 12:39:05;;;;;;;15.85;2.90;;;;;;;;;;4974216;28;20047;-81
2023/07/10 12:41:37;;;;;;;20.08;3.80;;;;;;;;;;4973698;28;20676;-80
2023/07/10 12:44:05;;;;;;;10.35;2.60;;;;;;;;;;4974115;28;20540;-81
2023/07/10 12:46:31;;;;;;;11.90;2.75;;;;;;;;;;4962664;28;20047;-81
2023/07/10 12:49:11;;;;;;;15.18;3.08;;;;;;;;;;4973441;28;20487;-81
2023/07/10 12:51:38;;;;;;;12.82;2.90;;;;;;;;;;4972365;28;20050;-82
2023/07/10 12:54:19;;;;;;;13.37;2.50;;;;;;;;;;4973428;28;20122;-81
2023/07/10 12:56:44;;;;;;;15.02;2.63;;;;;;;;;;4973715;28;20050;-80
2023/07/10 12:59:18;;;;;;;15.55;2.72;;;;;;;;;;4973249;28;20042;-80
2023/07/10 13:01:49;;;;;;;13.35;2.63;;;;;;;;;;4973473;28;20058;-79
2023/07/10 13:04:22;;;;;;;13.48;2.63;;;;;;;;;;4973297;28;20098;-80
2023/07/10 13:07:02;;;;;;;15.60;2.55;;;;;;;;;;4964007;28;20051;-80
2023/07/10 13:09:32;;;;;;;12.63;2.75;;;;;;;;;;4954416;28;20062;-81
2023/07/10 13:11:58;;;;;;;11.27;2.55;;;;;;;;;;4954333;28;20071;-82
2023/07/10 13:14:30;;;;;;;14.55;2.40;;;;;;;;;;4954204;28;20051;-78
2023/07/10 13:16:57;;;;;;;14.23;2.85;;;;;;;;;;4954445;28;20047;-80
2023/07/10 13:19:22;;;;;;;11.30;2.33;;;;;;;;;;4953807;28;20074;-78
2023/07/10 13:21:48;;;;;;;13.02;2.58;;;;;;;;;;4954495;28;20508;-78
2023/07/10 13:24:13;;;;;;;8.95;2.22;;;;;;;;;;4954195;28;20047;-81
2023/07/10 13:26:41;;;;;;;14.52;2.88;;;;;;;;;;4953265;29;20412;-82
2023/07/10 13:29:11;;;;;;;10.77;2.63;;;;;;;;;;4954590;28;20035;-81
2023/07/10 13:31:37;;;;;;;14.07;2.72;;;;;;;;;;4961733;28;20278;-81
2023/07/10 13:34:02;;;;;;;10.00;2.35;;;;;;;;;;4987761;28;20123;-82
2023/07/10 13:36:28;;;;;;;13.85;2.75;;;;;;;;;;4996274;28;20066;-82
2023/07/10 13:38:53;;;;;;;14.32;2.97;;;;;;;;;;4996909;28;20035;-81
2023/07/10 13:41:22;;;;;;;10.10;2.47;;;;;;;;;;4986107;28;20050;-80
2023/07/10 13:43:48;;;;;;;15.30;2.88;;;;;;;;;;4988647;28;20479;-81
2023/07/10 13:46:27;;;;;;;14.48;3.20;;;;;;;;;;4994648;28;20039;-82
2023/07/10 13:48:55;;;;;;;14.25;2.53;;;;;;;;;;4995056;28;20063;-81
2023/07/10 13:51:22;;;;;;;13.40;2.75;;;;;;;;;;4995565;28;20045;-80
2023/07/10 13:53:48;;;;;;;9.07;2.42;;;;;;;;;;4995816;28;20069;-80
2023/07/10 13:56:18;;;;;;;14.25;2.65;;;;;;;;;;4995376;28;20054;-80
2023/07/10 13:58:44;;;;;;;10.68;2.55;;;;;;;;;;4995656;28;20050;-80
2023/07/10 14:01:12;;;;;;;12.02;2.30;;;;;;;;;;4994925;28;20050;-80
2023/07/10 14:03:38;;;;;;;11.77;2.70;;;;;;;;;;4993115;28;20102;-80
2023/07/10 14:06:29;;;;;;;10.63;2.20;;;;;;;;;;4995440;28;20065;-80
2023/07/10 14:08:56;;;;;;;12.40;2.58;;;;;;;;;;4987832;28;20466;-79
2023/07/10 14:11:24;;;;;;;15.02;2.70;;;;;;;;;;4972123;28;20045;-81
2023/07/10 14:13:50;;;;;;;;;;;;;;;;;;4972870;28;20043;-80
2023/07/10 14:16:19;;;;;;;9.57;2.40;;;;;;;;;;4971831;28;19929;-82
2023/07/10 14:18:45;;;;;;;11.57;2.70;;;;;;;;;;4975148;28;20503;-80
2023/07/10 14:21:14;;;;;;;11.38;2.72;;;;;;;;;;4973027;28;20090;-81
2023/07/10 14:23:40;;;;;;;14.57;2.40;;;;;;;;;;4972517;28;20055;-78
2023/07/10 14:26:26;;;;;;;12.57;2.10;;;;;;;;;;4972127;28;20042;-82
2023/07/10 14:28:53;;;;;;;13.55;2.20;;;;;;;;;;4974498;28;20460;-79
2023/07/10 14:31:20;;;;;;;9.25;2.00;;;;;;;;;;4973344;28;20133;-82
2023/07/10 14:33:45;;;;;;;12.43;2.40;;;;;;;;;;4955173;28;20134;-81
2023/07/10 14:36:14;;;;;;;10.45;2.47;;;;;;;;;;4971504;28;20126;-81
2023/07/10 14:38:39;;;;;;;14.13;2.75;;;;;;;;;;4972809;28;20484;-81
2023/07/10 14:41:04;;;;;;;13.90;3.00;;;;;;;;;;4972030;28;20058;-80
2023/07/10 14:43:30;;;;;;;14.57;2.92;;;;;;;;;;4973222;28;20042;-81
2023/07/10 14:45:57;;;;;;;13.20;3.03;;;;;;;;;;4972255;28;20105;-80
2023/07/10 14:48:27;;;;;;;10.88;2.47;;;;;;;;;;4969351;28;20043;-82
2023/07/10 14:50:52;;;;;;;10.05;2.30;;;;;;;;;;4972160;28;20043;-81
2023/07/10 14:53:24;;;;;;;9.02;2.28;;;;;;;;;;4971297;28;20178;-82
2023/07/10 14:55:52;;;;;;;10.75;2.35;;;;;;;;;;4969055;28;20038;-80
2023/07/10 14:58:20;;;;;;;15.77;3.10;;;;;;;;;;4971664;28;20058;-81
2023/07/10 15:00:47;;;;;;;10.23;2.22;;;;;;;;;;4972585;28;20058;-80
2023/07/10 15:03:13;;;;;;;7.07;2.20;;;;;;;;;;4974181;28;20097;-80
2023/07/10 15:05:41;;;;;;;10.43;2.40;;;;;;;;;;4972151;28;20570;-80
2023/07/10 15:08:19;;;;;;;9.43;2.17;;;;;;;;;;4972303;28;20039;-79
2023/07/10 15:10:44;;;;;;;;;;;;;;;;;;4975654;28;20117;-80
2023/07/10 15:13:16;;;;;;;9.32;2.33;;;;;;;;;;4972895;28;20343;-81
2023/07/10 15:15:41;;;;;;;10.15;2.70;;;;;;;;;;4970763;28;20058;-80
2023/07/10 15:18:15;;;;;;;12.95;2.72;;;;;;;;;;4970656;28;20511;-81
2023/07/10 15:20:41;;;;;;;12.20;2.50;;;;;;;;;;4969737;28;20467;-81
2023/07/10 15:23:18;;;;;;;9.98;2.70;;;;;;;;;;4965306;28;20049;-80
2023/07/10 15:25:44;;;;;;;10.25;3.08;;;;;;;;;;4960539;28;20101;-82
2023/07/10 15:28:10;;;;;;;15.75;3.83;;;;;;;;;;4967038;28;20507;-81
2023/07/10 15:30:35;;;;;;;8.98;2.35;;;;;;;;;;4964188;28;20426;-82
2023/07/10 15:33:02;;;;;;;11.00;2.30;;;;;;;;;;4967911;28;20050;-83
2023/07/10 15:35:28;;;;;;;10.90;2.45;;;;;;;;;;4967210;28;20038;-81
2023/07/10 15:37:54;;;;;;;7.43;2.08;;;;;;;;;;4967560;28;20061;-82
2023/07/10 15:40:24;;;;;;;13.25;2.40;;;;;;;;;;4966438;28;20137;-82
2023/07/10 15:42:53;;;;;;;10.07;2.42;;;;;;;;;;4951151;28;20587;-81
2023/07/10 15:45:19;;;;;;;8.75;2.20;;;;;;;;;;4967999;28;20571;-81
2023/07/10 15:47:47;;;;;;;17.08;2.15;;;;;;;;;;4967297;28;20043;-78
2023/07/10 15:50:14;;;;;;;11.13;2.30;;;;;;;;;;4966992;28;20062;-80
2023/07/10 15:52:43;;;;;;;16.65;3.53;;;;;;;;;;4968855;28;20046;-80
2023/07/10 15:55:22;;;;;;;8.15;1.95;;;;;;;;;;4966830;28;20499;-79
2023/07/10 15:57:49;;;;;;;11.77;2.00;;;;;;;;;;4968045;28;20042;-81
2023/07/10 16:00:17;;;;;;;11.55;2.17;;;;;;;;;;4966463;28;20470;-81
2023/07/10 16:02:45;;;;;;;8.13;1.90;;;;;;;;;;4969153;28;20050;-81
2023/07/10 16:05:31;;;;;;;11.98;2.97;;;;;;;;;;4968261;28;20305;-81
2023/07/10 16:07:58;;;;;;;13.38;2.00;;;;;;;;;;4967265;28;20043;-80
2023/07/10 16:10:25;;;;;;;11.27;2.35;;;;;;;;;;4950457;28;20047;-79
2023/07/10 16:12:53;;;;;;;10.95;2.65;;;;;;;;;;4957404;28;20047;-82
2023/07/10 16:15:25;;;;;;;14.93;2.77;;;;;;;;;;4953465;28;20043;-80
2023/07/10 16:17:50;;;;;;;10.93;2.42;;;;;;;;;;4961130;28;20282;-81
2023/07/10 16:20:23;;;;;;;9.00;2.50;;;;;;;;;;4966512;28;20594;-80
2023/07/10 16:22:54;;;;;;;12.68;2.33;;;;;;;;;;4983114;28;20051;-78
2023/07/10 16:25:20;;;;;;;14.18;2.63;;;;;;;;;;4970290;28;20098;-81
2023/07/10 16:27:45;;;;;;;12.57;2.22;;;;;;;;;;4965974;28;20051;-80
2023/07/10 16:30:20;;;;;;;12.55;2.58;;;;;;;;;;4981867;28;20042;-80
2023/07/10 16:32:46;;;;;;;10.88;2.20;;;;;;;;;;4981467;28;20076;-80
2023/07/10 16:35:17;;;;;;;12.52;2.47;;;;;;;;;;4985989;28;20034;-79
2023/07/10 16:37:43;;;;;;;12.82;2.55;;;;;;;;;;4986482;28;20051;-81
2023/07/10 16:40:20;;;;;;;10.43;2.53;;;;;;;;;;4986209;28;20176;-81
2023/07/10 16:42:47;;;;;;;13.63;2.78;;;;;;;;;;4985480;28;20031;-81
2023/07/10 16:45:18;;;;;;;8.52;3.10;;;;;;;;;;4971765;28;20058;-79
2023/07/10 16:47:44;;;;;;;13.80;4.60;;;;;;;;;;4983829;28;20043;-81
2023/07/10 16:50:14;;;;;;;13.45;2.80;;;;;;;;;;4985552;28;20053;-80
2023/07/10 16:52:40;;;;;;;11.95;2.45;;;;;;;;;;4973706;28;20047;-81
2023/07/10 16:55:13;;;;;;;14.52;2.75;;;;;;;;;;4979294;28;20046;-80
2023/07/10 16:57:39;;;;;;;12.27;3.20;;;;;;;;;;4980472;28;20046;-80
2023/07/10 17:00:05;;;;;;;11.80;2.45;;;;;;;;;;4981210;28;20058;-79
2023/07/10 17:02:30;;;;;;;13.98;2.30;;;;;;;;;;4959920;28;20067;-79
2023/07/10 17:04:56;;;;;;;11.00;2.40;;;;;;;;;;4948575;28;20055;-79
2023/07/10 17:07:21;;;;;;;11.63;2.45;;;;;;;;;;4949820;28;20075;-80
2023/07/10 17:09:47;;;;;;;11.85;2.80;;;;;;;;;;4950147;29;20052;-80
2023/07/10 17:12:12;;;;;;;15.20;2.63;;;;;;;;;;4950964;29;20107;-81
2023/07/10 17:14:38;;;;;;;11.40;2.88;;;;;;;;;;4951109;28;20111;-81
2023/07/10 17:17:20;;;;;;;18.40;3.00;;;;;;;;;;4933152;28;20052;-80
2023/07/10 17:19:47;;;;;;;10.95;2.33;;;;;;;;;;4922612;29;20106;-79
2023/07/10 17:22:28;;;;;;;9.38;2.50;;;;;;;;;;4909382;29;20055;-78
2023/07/10 17:24:55;;;;;;;13.07;2.70;;;;;;;;;;4917668;29;20048;-79
2023/07/10 17:27:23;;;;;;;8.88;2.28;;;;;;;;;;4925364;29;20079;-80
2023/07/10 17:29:48;;;;;;;10.77;2.57;;;;;;;;;;4922575;29;20134;-80
2023/07/10 17:32:15;;;;;;;11.18;2.35;;;;;;;;;;4929808;29;20771;-81
2023/07/10 17:34:41;;;;;;;17.33;2.85;;;;;;;;;;4935396;29;20138;-80
2023/07/10 17:37:11;;;;;;;7.93;2.53;;;;;;;;;;4933678;29;20548;-79
2023/07/10 17:39:36;;;;;;;10.20;2.45;;;;;;;;;;4933827;29;20050;-79
2023/07/10 17:42:02;;;;;;;12.07;2.20;;;;;;;;;;4934064;29;20118;-80
2023/07/10 17:44:32;;;;;;;11.88;2.72;;;;;;;;;;4933951;29;20071;-79
2023/07/10 17:46:59;;;;;;;12.70;2.97;;;;;;;;;;4933215;29;20348;-80
2023/07/10 17:49:24;;;;;;;14.45;2.50;;;;;;;;;;4932880;29;20063;-80
2023/07/10 17:51:50;;;;;;;10.15;2.38;;;;;;;;;;4931665;29;20070;-80
2023/07/10 17:54:21;;;;;;;13.70;2.35;;;;;;;;;;4932504;29;20173;-79
2023/07/10 17:56:47;;;;;;;13.02;2.67;;;;;;;;;;4932731;29;20211;-80
2023/07/10 17:59:13;;;;;;;13.00;2.58;;;;;;;;;;4932591;29;20054;-79
2023/07/10 18:01:41;;;;;;;16.38;3.63;;;;;;;;;;4954888;28;20109;-79
2023/07/10 18:04:16;;;;;;;9.73;2.42;;;;;;;;;;4955086;28;20061;-79
2023/07/10 18:06:42;;;;;;;16.88;3.13;;;;;;;;;;4972607;28;20050;-80
2023/07/10 18:09:33;;;;;;;11.32;2.72;;;;;;;;;;4954621;28;20150;-80
2023/07/10 18:12:00;;;;;;;13.57;3.00;;;;;;;;;;4969020;28;20047;-80
2023/07/10 18:14:25;;;;;;;12.65;2.65;;;;;;;;;;4972593;28;20058;-80
2023/07/10 18:16:51;;;;;;;14.32;2.90;;;;;;;;;;4972519;28;20035;-80
2023/07/10 18:19:18;;;;;;;12.75;2.80;;;;;;;;;;4971850;28;20456;-80
2023/07/10 18:21:51;;;;;;;12.52;2.63;;;;;;;;;;4972851;28;20046;-80
2023/07/10 18:24:20;;;;;;;17.63;2.72;;;;;;;;;;4972015;28;20046;-83
2023/07/10 18:26:46;;;;;;;13.45;2.90;;;;;;;;;;4972052;28;20483;-79
2023/07/10 18:29:12;;;;;;;10.70;2.60;;;;;;;;;;4972363;28;20050;-79
2023/07/10 18:31:38;;;;;;;16.33;3.17;;;;;;;;;;4971926;28;20126;-80
2023/07/10 18:34:13;;;;;;;14.65;3.05;;;;;;;;;;4972140;28;20368;-79
2023/07/10 18:36:38;;;;;;;14.48;2.70;;;;;;;;;;4972059;28;20050;-80
2023/07/10 18:39:04;;;;;;;13.98;3.03;;;;;;;;;;4972032;28;20039;-79
2023/07/10 18:41:30;;;;;;;9.02;2.83;;;;;;;;;;4971950;28;20404;-80
2023/07/10 18:44:00;;;;;;;14.45;3.45;;;;;;;;;;4972301;28;20177;-79
2023/07/10 18:46:27;;;;;;;13.88;2.85;;;;;;;;;;4971505;28;20049;-79
2023/07/10 18:48:54;;;;;;;17.48;3.15;;;;;;;;;;4972536;28;20384;-79
2023/07/10 18:51:31;;;;;;;12.80;3.10;;;;;;;;;;4970170;28;20093;-79
2023/07/10 18:53:59;;;;;;;11.30;2.50;;;;;;;;;;4971924;28;20410;-79
2023/07/10 18:56:24;;;;;;;;;;;;;;;;;;4972221;28;20376;-80
2023/07/10 18:58:50;;;;;;;13.13;2.78;;;;;;;;;;4971805;28;19941;-80
2023/07/10 19:01:18;;;;;;;16.63;3.33;;;;;;;;;;4971400;28;20512;-79
2023/07/10 19:03:43;;;;;;;15.27;3.33;;;;;;;;;;4973833;28;20053;-80
2023/07/10 19:06:23;;;;;;;15.15;3.55;;;;;;;;;;4973637;28;20113;-80
2023/07/10 19:08:48;;;;;;;16.00;3.20;;;;;;;;;;4974893;28;20063;-80
2023/07/10 19:11:16;;;;;;;17.33;3.08;;;;;;;;;;4974957;28;20043;-80
2023/07/10 19:13:44;;;;;;;13.90;3.33;;;;;;;;;;4974562;28;20050;-79
2023/07/10 19:16:21;;;;;;;13.77;3.15;;;;;;;;;;4974027;28;20043;-79
2023/07/10 19:19:04;;;;;;;14.18;3.17;;;;;;;;;;4973672;28;20063;-80
2023/07/10 19:21:29;;;;;;;16.40;3.25;;;;;;;;;;4973847;28;20069;-80
2023/07/10 19:23:56;;;;;;;20.67;3.45;;;;;;;;;;4974269;28;20035;-80
2023/07/10 19:26:22;;;;;;;10.00;3.00;;;;;;;;;;4972514;28;20047;-80
2023/07/10 19:28:48;;;;;;;20.52;3.95;;;;;;;;;;4973141;28;20138;-80
2023/07/10 19:31:16;;;;;;;14.90;3.30;;;;;;;;;;4972855;28;20077;-79
2023/07/10 19:33:44;;;;;;;21.05;3.85;;;;;;;;;;4972876;28;20415;-80
2023/07/10 19:36:19;;;;;;;15.15;3.42;;;;;;;;;;4972424;28;20057;-79
2023/07/10 19:38:45;;;;;;;22.92;3.95;;;;;;;;;;4973792;28;20039;-80
2023/07/10 19:41:10;;;;;;;16.08;3.38;;;;;;;;;;4972688;28;20035;-80
2023/07/10 19:43:36;;;;;;;18.65;3.83;;;;;;;;;;4972933;28;20046;-80
2023/07/10 19:46:03;;;;;;;15.45;3.80;;;;;;;;;;4972861;28;20047;-80
2023/07/10 19:48:32;;;;;;;17.23;3.33;;;;;;;;;;4972475;28;20039;-79
2023/07/10 19:50:58;;;;;;;15.90;3.70;;;;;;;;;;4972608;28;20046;-79
2023/07/10 19:53:29;;;;;;;15.50;3.85;;;;;;;;;;4972357;28;20074;-80
2023/07/10 19:55:57;;;;;;;17.67;3.72;;;;;;;;;;4972050;28;20039;-80
2023/07/10 19:58:25;;;;;;;13.93;3.90;;;;;;;;;;4972556;28;20518;-79
2023/07/10 20:00:51;;;;;;;21.90;4.25;;;;;;;;;;4971366;28;20051;-80
2023/07/10 20:03:19;;;;;;;21.08;3.75;;;;;;;;;;4974855;28;20404;-80
2023/07/10 20:05:45;;;;;;;18.77;4.22;;;;;;;;;;4975711;28;20100;-80
2023/07/10 20:08:28;;;;;;;15.50;3.88;;;;;;;;;;4975641;28;20039;-79
2023/07/10 20:10:53;;;;;;;18.55;4.50;;;;;;;;;;4975025;28;20097;-79
2023/07/10 20:13:23;;;;;;;17.25;3.67;;;;;;;;;;4974188;28;20418;-80
2023/07/10 20:15:54;;;;;;;16.67;3.80;;;;;;;;;;4974656;28;20488;-80
2023/07/10 20:18:22;;;;;;;18.88;3.35;;;;;;;;;;4974153;28;20053;-80
2023/07/10 20:20:49;;;;;;;17.23;3.72;;;;;;;;;;4974540;28;20043;-79
2023/07/10 20:23:15;;;;;;;22.63;4.25;;;;;;;;;;4974096;28;20039;-79
2023/07/10 20:25:45;;;;;;;18.45;4.32;;;;;;;;;;4959887;28;20122;-80
2023/07/10 20:28:33;;;;;;;20.15;3.78;;;;;;;;;;4954813;28;20126;-80
2023/07/10 20:30:58;;;;;;;18.50;3.60;;;;;;;;;;4957630;28;20039;-84
2023/07/10 20:33:29;;;;;;;16.73;3.97;;;;;;;;;;4955831;28;20097;-79
2023/07/10 20:35:55;;;;;;;15.00;3.55;;;;;;;;;;4967335;28;20054;-80
2023/07/10 20:38:26;;;;;;;20.58;3.72;;;;;;;;;;4964265;28;20107;-79
2023/07/10 20:40:53;;;;;;;15.32;3.90;;;;;;;;;;4969260;28;20078;-80
2023/07/10 20:43:22;;;;;;;16.77;3.70;;;;;;;;;;4955211;28;20668;-82
2023/07/10 20:45:51;;;;;;;15.98;4.68;;;;;;;;;;4963527;28;20057;-79
2023/07/10 20:48:21;;;;;;;13.18;3.40;;;;;;;;;;4962434;28;20061;-79